ETNL

Rostock-Laage Airport

Rostock, Germany
METAR ETNL 260320Z 05004KT 6000 VCFG MIFG FEW120 10/10 Q1023 WHT
Observed Flight Rules
May-26 @ 03:20 UTC (an hour ago) Marginal Visual Flight Rules
Wind Visibility Clouds Conditions
50° at 4 knots 6,003 meters
  • Few at 12,000' AGL
  • Area Fog
  • Shallow
  • Fog
Temperatures Readings
Current 10°C / 50°F
Dewpoint 10°C / 50°F
Humidity 100%
Altimeter 30.21" Hg
Pressure 1023 hPa
Elevation 40
METAR ETNL 260320Z 05004KT 6000 VCFG MIFG FEW120 10/10 Q1023 WHT
Observed Flight Rules
May-26 @ 03:20 UTC
(an hour ago)
MVFR
Wind Visibility
50° at 4 knots 6,003 meters
Clouds
  • Few at 12,000' AGL
Conditions
  • Area Fog
  • Shallow
  • Fog
Temperature Dewpoint
10°C / 50°F 10°C / 50°F
Humidity Altimeter Pressure
100% 30.21" Hg 1023 hPa